Time;durP1;ratioP1;P1;durP2;ratioP2;P2;SDS_P1;SDS_P2;PMS_P1;PMS_P2;Temp;Humidity;BMP_temperature;BMP_pressure;BME280_temperature;BME280_humidity;BME280_pressure;Samples;Min_cycle;Max_cycle;Signal;HPM_P1;HPM_P2
2020/12/03 05:01:58;;;;;;;54.63;31.53;;;1.40;99.90;;;;;;5659087;22;20553;-62
2020/12/03 05:04:33;;;;;;;55.93;31.60;;;1.40;99.90;;;;;;5034480;28;20459;-63
2020/12/03 05:07:02;;;;;;;57.30;30.87;;;1.40;99.90;;;;;;5034672;28;20466;-62
2020/12/03 05:09:35;;;;;;;57.03;32.23;;;1.40;99.90;;;;;;5034640;28;20448;-64
2020/12/03 05:12:11;;;;;;;53.13;29.53;;;1.50;99.90;;;;;;5034885;28;20822;-62
2020/12/03 05:14:43;;;;;;;52.40;29.03;;;1.50;99.90;;;;;;5034851;28;20432;-64
2020/12/03 05:17:45;;;;;;;59.40;32.83;;;1.40;99.90;;;;;;5035207;28;20440;-62
2020/12/03 05:20:34;;;;;;;52.20;30.17;;;1.50;99.90;;;;;;5002090;28;20466;-62
2020/12/03 05:23:07;;;;;;;52.77;29.30;;;1.50;99.90;;;;;;5034837;28;20432;-63
2020/12/03 05:25:33;;;;;;;62.40;31.40;;;1.50;99.90;;;;;;5034455;28;20814;-63
2020/12/03 05:28:10;;;;;;;51.70;31.17;;;1.60;99.90;;;;;;5035064;28;20479;-62
2020/12/03 05:30:42;;;;;;;56.43;31.00;;;1.70;99.90;;;;;;5034341;28;20474;-62
2020/12/03 05:33:09;;;;;;;49.13;27.77;;;1.70;99.90;;;;;;5034388;28;20440;-63
2020/12/03 05:35:38;;;;;;;54.67;29.90;;;1.70;99.90;;;;;;5034115;28;20448;-62
2020/12/03 05:38:06;;;;;;;54.33;29.27;;;1.60;99.90;;;;;;5033860;28;20784;-62
2020/12/03 05:40:32;;;;;;;52.17;29.50;;;1.60;99.90;;;;;;5034098;28;20471;-62
2020/12/03 05:42:58;;;;;;;52.97;28.97;;;1.60;99.90;;;;;;5034171;28;20452;-62
2020/12/03 05:45:29;;;;;;;55.07;31.37;;;1.60;99.90;;;;;;5034101;28;20939;-62
2020/12/03 05:47:58;;;;;;;61.37;30.73;;;1.60;99.90;;;;;;5033872;28;20801;-62
2020/12/03 05:50:35;;;;;;;53.10;30.17;;;1.50;99.90;;;;;;5034285;28;20510;-63
2020/12/03 05:53:02;;;;;;;48.30;30.07;;;1.50;99.90;;;;;;5033993;28;20432;-62
2020/12/03 05:55:31;;;;;;;52.23;28.50;;;1.60;99.90;;;;;;5034197;28;20475;-63
2020/12/03 05:58:13;;;;;;;54.80;30.03;;;1.60;99.90;;;;;;5033911;28;20448;-63
2020/12/03 06:00:40;;;;;;;51.67;30.03;;;1.50;99.90;;;;;;5033583;28;20483;-64
2020/12/03 06:03:26;;;;;;;47.57;28.37;;;1.50;99.90;;;;;;5033756;28;20456;-62
2020/12/03 06:06:08;;;;;;;54.50;30.53;;;1.50;99.90;;;;;;5033464;28;20435;-62
2020/12/03 06:09:12;;;;;;;53.60;30.47;;;1.50;99.90;;;;;;5033350;28;20482;-62
2020/12/03 06:11:49;;;;;;;52.30;26.80;;;1.50;99.90;;;;;;5028475;28;20476;-62
2020/12/03 06:14:40;;;;;;;48.55;35.15;;;1.60;99.90;;;;;;5032051;28;20445;-64
2020/12/03 06:17:21;;;;;;;55.07;31.30;;;3.00;99.90;;;;;;5033657;28;20562;-63
2020/12/03 06:19:53;;;;;;;50.13;29.47;;;3.20;99.90;;;;;;5033383;28;20432;-63
2020/12/03 06:22:32;;;;;;;56.13;30.50;;;3.20;99.90;;;;;;5033377;28;20468;-63
2020/12/03 06:25:27;;;;;;;47.80;29.00;;;3.00;99.90;;;;;;5033563;28;20435;-63
2020/12/03 06:28:18;;;;;;;48.43;30.00;;;3.00;99.90;;;;;;5018357;28;20484;-62
2020/12/03 06:30:48;;;;;;;53.33;29.10;;;2.70;99.90;;;;;;5034210;28;20470;-62
2020/12/03 06:33:35;;;;;;;47.40;28.40;;;2.40;99.90;;;;;;5034948;28;20944;-63
2020/12/03 06:36:07;;;;;;;53.90;30.27;;;2.20;99.90;;;;;;5037971;28;20436;-63
2020/12/03 06:38:39;;;;;;;51.90;29.77;;;2.00;99.90;;;;;;5033740;28;20844;-63
2020/12/03 06:41:29;;;;;;;49.07;28.80;;;1.90;99.90;;;;;;5034351;28;20476;-63
2020/12/03 06:44:09;;;;;;;47.10;28.63;;;1.80;99.90;;;;;;5033547;28;20440;-62
2020/12/03 06:47:05;;;;;;;48.00;28.23;;;1.80;99.90;;;;;;5034869;28;20466;-62
2020/12/03 06:49:58;;;;;;;50.83;27.87;;;1.70;99.90;;;;;;5039043;28;20440;-62
2020/12/03 06:52:41;;;;;;;51.13;29.10;;;1.70;99.90;;;;;;5038790;28;20986;-62
2020/12/03 06:55:34;;;;;;;53.00;27.33;;;1.70;99.90;;;;;;5039249;28;20483;-63
2020/12/03 06:58:35;;;;;;;48.33;26.10;;;1.70;99.90;;;;;;5036580;28;20433;-63
2020/12/03 07:01:46;;;;;;;45.13;27.37;;;1.70;99.90;;;;;;5036268;28;20478;-62
2020/12/03 07:04:48;;;;;;;42.80;25.13;;;1.70;99.90;;;;;;5008376;28;20943;-61
2020/12/03 07:07:49;;;;;;;48.40;26.60;;;1.80;99.90;;;;;;5005905;28;20475;-61
2020/12/03 07:11:03;;;;;;;50.27;28.50;;;1.80;99.90;;;;;;4979944;28;20451;-63
2020/12/03 07:14:25;;;;;;;44.50;25.03;;;1.90;99.90;;;;;;5036255;28;20428;-63
2020/12/03 07:17:26;;;;;;;38.80;23.60;;;1.90;99.90;;;;;;5025290;28;20927;-63
2020/12/03 07:20:42;;;;;;;39.47;21.30;;;1.90;99.90;;;;;;5035692;28;20903;-63
2020/12/03 07:23:13;;;;;;;34.67;22.57;;;1.90;99.90;;;;;;5010176;28;20458;-63
2020/12/03 07:25:42;;;;;;;36.70;22.93;;;1.90;99.90;;;;;;5035424;28;20923;-63
2020/12/03 07:28:18;;;;;;;40.77;22.50;;;2.00;99.90;;;;;;5035335;28;20480;-63
2020/12/03 07:30:50;;;;;;;35.90;21.07;;;2.00;99.90;;;;;;5035629;28;20468;-63
2020/12/03 07:33:38;;;;;;;30.70;20.70;;;2.10;99.90;;;;;;5035846;28;20493;-63
2020/12/03 07:36:25;;;;;;;32.13;19.40;;;2.10;99.90;;;;;;5035817;28;20451;-63
2020/12/03 07:38:54;;;;;;;33.13;21.40;;;2.20;99.90;;;;;;5036890;28;20440;-64
2020/12/03 07:41:23;;;;;;;27.50;18.73;;;2.20;99.90;;;;;;5035481;28;20471;-63
2020/12/03 07:44:05;;;;;;;24.43;17.53;;;2.20;99.90;;;;;;5035921;28;20448;-63
2020/12/03 07:46:37;;;;;;;24.47;16.67;;;2.20;99.90;;;;;;5036354;28;20475;-63
2020/12/03 07:49:05;;;;;;;22.20;15.93;;;2.20;99.90;;;;;;5035439;28;20931;-64
2020/12/03 07:51:31;;;;;;;25.20;16.93;;;2.20;99.90;;;;;;5035668;28;20479;-63
2020/12/03 07:54:23;;;;;;;25.47;16.27;;;2.20;99.90;;;;;;5035399;28;20456;-62
2020/12/03 07:56:51;;;;;;;27.13;15.77;;;2.20;99.90;;;;;;5035825;28;20444;-62
2020/12/03 07:59:38;;;;;;;24.80;15.97;;;2.30;99.90;;;;;;5035813;28;20455;-62
2020/12/03 08:02:49;;;;;;;18.80;14.17;;;2.30;99.90;;;;;;5034849;28;20906;-61
2020/12/03 08:05:37;;;;;;;18.00;13.17;;;2.30;99.90;;;;;;5035339;28;20451;-63
2020/12/03 08:08:03;;;;;;;19.03;14.30;;;2.30;99.90;;;;;;5035445;28;20472;-64
2020/12/03 08:10:35;;;;;;;18.00;12.70;;;2.30;99.90;;;;;;5035893;28;20452;-64
2020/12/03 08:13:15;;;;;;;19.87;13.37;;;2.30;99.90;;;;;;5035727;28;20459;-62
2020/12/03 08:15:42;;;;;;;16.27;13.30;;;2.40;99.90;;;;;;5035327;28;20428;-64
2020/12/03 08:18:38;;;;;;;15.27;11.50;;;2.50;99.90;;;;;;5035483;28;20448;-63
2020/12/03 08:21:04;;;;;;;15.00;10.70;;;2.60;99.90;;;;;;5035339;28;20555;-63
2020/12/03 08:23:31;;;;;;;12.77;10.53;;;2.60;99.90;;;;;;5035035;28;20452;-63
2020/12/03 08:25:57;;;;;;;14.57;11.40;;;2.60;99.90;;;;;;5035095;28;20452;-64
2020/12/03 08:28:26;;;;;;;14.27;10.90;;;2.60;99.90;;;;;;5034825;28;20472;-61
2020/12/03 08:30:53;;;;;;;15.27;10.97;;;2.90;99.90;;;;;;5034999;28;20476;-64
2020/12/03 08:33:27;;;;;;;11.20;10.00;;;3.50;99.90;;;;;;5035008;28;20895;-64
2020/12/03 08:35:56;;;;;;;12.97;9.33;;;3.60;99.90;;;;;;5035195;28;20895;-61
2020/12/03 08:38:26;;;;;;;14.50;11.20;;;3.50;99.90;;;;;;5034774;28;20905;-61
2020/12/03 08:40:53;;;;;;;13.80;11.27;;;3.50;99.90;;;;;;5034966;28;20537;-62
2020/12/03 08:43:21;;;;;;;16.33;12.80;;;3.60;99.90;;;;;;5035066;28;20458;-62
2020/12/03 08:45:53;;;;;;;20.93;14.90;;;3.50;99.90;;;;;;5034750;28;20555;-62
2020/12/03 08:48:25;;;;;;;20.80;14.60;;;3.60;99.90;;;;;;5034913;28;20468;-62
2020/12/03 08:50:56;;;;;;;21.50;15.60;;;3.70;99.90;;;;;;5034643;28;20478;-62
2020/12/03 08:53:22;;;;;;;21.23;14.93;;;3.60;99.90;;;;;;5035039;28;20862;-62
2020/12/03 08:55:48;;;;;;;19.20;13.40;;;3.70;99.90;;;;;;5034448;28;20987;-62
2020/12/03 08:58:20;;;;;;;18.33;13.63;;;3.70;99.90;;;;;;5034754;28;20436;-63
2020/12/03 09:00:48;;;;;;;17.97;12.27;;;3.70;99.90;;;;;;5034567;28;20851;-62
2020/12/03 09:03:14;;;;;;;16.00;12.10;;;3.80;99.90;;;;;;5034331;28;20448;-62
2020/12/03 09:05:44;;;;;;;16.50;12.50;;;3.90;99.90;;;;;;5034609;28;20474;-62
2020/12/03 09:08:17;;;;;;;14.20;11.97;;;4.00;99.90;;;;;;5033958;28;20483;-62
2020/12/03 09:10:44;;;;;;;16.63;8.83;;;4.00;99.90;;;;;;5034059;28;20541;-61
2020/12/03 09:13:11;;;;;;;8.50;7.70;;;4.00;99.90;;;;;;5033870;28;20455;-62
2020/12/03 09:15:39;;;;;;;8.27;6.90;;;4.20;99.90;;;;;;5033853;28;20849;-62
2020/12/03 09:18:06;;;;;;;12.57;9.30;;;4.20;99.90;;;;;;5034025;28;20448;-62
2020/12/03 09:20:32;;;;;;;11.93;9.40;;;4.20;99.90;;;;;;5034480;28;20506;-63
2020/12/03 09:22:59;;;;;;;11.53;9.60;;;4.00;99.90;;;;;;5033327;28;20448;-62
2020/12/03 09:25:26;;;;;;;14.30;10.00;;;3.80;99.90;;;;;;5035311;28;20471;-62
2020/12/03 09:27:52;;;;;;;14.30;10.13;;;3.80;99.90;;;;;;5033617;28;20476;-62
2020/12/03 09:30:21;;;;;;;11.03;9.17;;;3.70;99.90;;;;;;5033658;28;20448;-62
2020/12/03 09:32:51;;;;;;;11.80;10.23;;;3.80;99.90;;;;;;5033765;28;20452;-62
2020/12/03 09:35:18;;;;;;;11.70;9.20;;;3.90;99.90;;;;;;5033694;28;20432;-62
2020/12/03 09:37:45;;;;;;;11.77;10.30;;;3.90;99.90;;;;;;5033933;28;20451;-62
2020/12/03 09:40:13;;;;;;;13.20;10.87;;;4.00;99.90;;;;;;5033732;28;20463;-62
2020/12/03 09:42:45;;;;;;;14.70;10.70;;;4.00;99.90;;;;;;5034134;28;20931;-62
2020/12/03 09:45:16;;;;;;;10.70;9.60;;;4.10;99.90;;;;;;5034119;28;20531;-62
2020/12/03 09:47:44;;;;;;;13.20;9.97;;;4.00;99.90;;;;;;5033638;28;20967;-62
2020/12/03 09:50:12;;;;;;;10.27;9.20;;;4.00;99.90;;;;;;5033716;28;20812;-62
2020/12/03 09:52:41;;;;;;;10.23;8.97;;;4.10;99.90;;;;;;5033797;28;20448;-62
2020/12/03 09:55:16;;;;;;;9.83;8.83;;;4.10;99.90;;;;;;5033753;28;20823;-62
2020/12/03 09:57:51;;;;;;;15.10;9.87;;;4.20;99.90;;;;;;5033702;28;20453;-62
2020/12/03 10:00:22;;;;;;;15.93;10.07;;;4.30;99.90;;;;;;5033781;28;20432;-62
2020/12/03 10:03:34;;;;;;;12.10;10.63;;;4.60;99.90;;;;;;5034289;28;20432;-62
2020/12/03 10:06:04;;;;;;;10.13;9.10;;;4.80;99.90;;;;;;5033621;28;20498;-62
2020/12/03 10:09:06;;;;;;;9.67;8.40;;;4.90;99.90;;;;;;5033878;28;20553;-62
2020/12/03 10:12:00;;;;;;;10.57;8.90;;;4.60;99.90;;;;;;5033832;28;20569;-62
2020/12/03 10:14:52;;;;;;;11.07;9.87;;;4.60;99.90;;;;;;5033418;28;20443;-62
2020/12/03 10:17:19;;;;;;;14.03;10.33;;;4.70;99.90;;;;;;5033946;28;20449;-61
2020/12/03 10:19:47;;;;;;;13.00;11.17;;;4.80;99.90;;;;;;5033392;28;20964;-62
2020/12/03 10:22:26;;;;;;;15.40;11.40;;;5.00;99.90;;;;;;5033107;28;20483;-62
2020/12/03 10:24:55;;;;;;;15.30;11.57;;;5.00;99.90;;;;;;5036523;28;20900;-62
2020/12/03 10:27:31;;;;;;;13.47;12.13;;;5.10;99.90;;;;;;5036987;28;20483;-62
2020/12/03 10:30:00;;;;;;;13.80;10.77;;;5.00;99.90;;;;;;5038013;28;20432;-63
2020/12/03 10:32:27;;;;;;;14.70;11.23;;;4.90;99.90;;;;;;5036867;28;20499;-61
2020/12/03 10:34:55;;;;;;;14.20;11.77;;;4.90;99.90;;;;;;5037043;28;20951;-62
2020/12/03 10:37:28;;;;;;;17.00;12.70;;;4.90;99.90;;;;;;5036697;28;20808;-62
2020/12/03 10:40:02;;;;;;;18.23;12.87;;;4.90;99.90;;;;;;5036648;28;20802;-62
2020/12/03 10:42:34;;;;;;;16.87;13.57;;;5.00;99.90;;;;;;5037860;28;20475;-62
2020/12/03 10:45:05;;;;;;;14.53;12.67;;;5.00;99.90;;;;;;5036930;28;20464;-62
2020/12/03 10:47:42;;;;;;;14.60;12.90;;;5.20;99.90;;;;;;5036737;28;20464;-62
2020/12/03 10:50:14;;;;;;;18.23;12.97;;;5.40;99.90;;;;;;5036904;28;20436;-63
2020/12/03 10:52:41;;;;;;;17.77;12.30;;;5.50;99.90;;;;;;5036627;28;20436;-62
2020/12/03 10:55:08;;;;;;;13.70;11.43;;;5.50;99.90;;;;;;5036485;28;20923;-62
2020/12/03 10:57:42;;;;;;;14.13;11.60;;;5.50;99.90;;;;;;5036884;28;20455;-62
2020/12/03 11:00:11;;;;;;;12.03;10.80;;;5.50;99.90;;;;;;5036327;28;20527;-64
2020/12/03 11:02:41;;;;;;;13.60;11.00;;;5.30;99.90;;;;;;5035621;28;20480;-64
2020/12/03 11:05:09;;;;;;;12.67;10.70;;;5.30;99.90;;;;;;5035960;28;20444;-64
2020/12/03 11:07:37;;;;;;;16.73;12.37;;;5.20;99.90;;;;;;5036255;28;20885;-64
2020/12/03 11:10:04;;;;;;;14.30;11.63;;;5.10;99.90;;;;;;5037116;28;20503;-64
2020/12/03 11:12:31;;;;;;;11.83;10.53;;;5.10;99.90;;;;;;5036207;28;20576;-64
2020/12/03 11:15:02;;;;;;;9.13;8.23;;;5.10;99.90;;;;;;5036052;28;20447;-63
2020/12/03 11:17:48;;;;;;;7.87;7.10;;;4.90;99.90;;;;;;5035999;28;20439;-63
2020/12/03 11:20:16;;;;;;;8.97;8.07;;;4.80;99.90;;;;;;5035798;28;20495;-64
2020/12/03 11:23:05;;;;;;;8.93;7.90;;;4.80;99.90;;;;;;5035983;28;20456;-64
2020/12/03 11:25:32;;;;;;;8.90;7.70;;;4.80;99.90;;;;;;5027592;28;20936;-64
2020/12/03 11:28:04;;;;;;;7.93;7.20;;;4.80;99.90;;;;;;5035708;28;20529;-64
2020/12/03 11:30:32;;;;;;;8.07;6.90;;;4.60;99.90;;;;;;5035391;28;20893;-64
2020/12/03 11:32:59;;;;;;;8.93;7.57;;;4.70;99.90;;;;;;5036226;28;20459;-63
2020/12/03 11:35:26;;;;;;;9.60;8.10;;;4.70;99.90;;;;;;5035230;28;20487;-63
2020/12/03 11:37:53;;;;;;;11.53;8.63;;;4.60;99.90;;;;;;5035332;28;20925;-64
2020/12/03 11:40:28;;;;;;;11.50;8.80;;;4.40;99.90;;;;;;5035227;28;20990;-64
2020/12/03 11:43:07;;;;;;;10.20;7.00;;;4.50;99.90;;;;;;5035578;28;20497;-63
2020/12/03 11:45:59;;;;;;;10.77;8.80;;;4.50;99.90;;;;;;5035809;28;20445;-63
2020/12/03 11:48:30;;;;;;;13.97;8.60;;;4.40;99.90;;;;;;5035011;28;20968;-64
2020/12/03 11:50:56;;;;;;;12.40;8.87;;;4.60;99.90;;;;;;5035160;28;21075;-64
2020/12/03 11:53:24;;;;;;;12.67;9.07;;;4.50;99.90;;;;;;5035690;28;20455;-64
2020/12/03 11:55:51;;;;;;;11.27;9.50;;;4.50;99.90;;;;;;5035321;28;20548;-62
2020/12/03 11:58:17;;;;;;;11.33;8.63;;;4.50;99.90;;;;;;5035884;28;20479;-64
2020/12/03 12:00:47;;;;;;;11.60;8.77;;;4.50;99.90;;;;;;5035419;28;20555;-64
2020/12/03 12:03:15;;;;;;;11.30;9.10;;;4.40;99.90;;;;;;5035237;28;20869;-64
2020/12/03 12:05:50;;;;;;;10.90;8.53;;;4.50;99.90;;;;;;5036657;28;20452;-64
2020/12/03 12:08:25;;;;;;;10.70;8.23;;;4.40;99.90;;;;;;5035591;28;20471;-64
2020/12/03 12:10:56;;;;;;;10.67;7.70;;;4.30;99.90;;;;;;5034833;28;20566;-64
2020/12/03 12:13:22;;;;;;;7.93;6.90;;;4.30;99.90;;;;;;5035892;28;20464;-64
2020/12/03 12:15:49;;;;;;;8.80;7.50;;;4.30;99.90;;;;;;5034695;28;20936;-63
2020/12/03 12:18:16;;;;;;;8.60;7.10;;;4.20;99.90;;;;;;5034556;28;20451;-64
2020/12/03 12:20:42;;;;;;;10.40;7.10;;;4.20;99.90;;;;;;5035057;28;20471;-63
2020/12/03 12:23:08;;;;;;;9.30;7.17;;;4.20;99.90;;;;;;5035336;28;20486;-63
2020/12/03 12:25:35;;;;;;;9.30;7.40;;;4.20;99.90;;;;;;5034799;28;20944;-63
2020/12/03 12:28:01;;;;;;;8.30;7.50;;;4.20;99.90;;;;;;5034612;28;20480;-63
2020/12/03 12:30:27;;;;;;;9.70;7.67;;;4.30;99.90;;;;;;5035099;28;20451;-63
2020/12/03 12:32:54;;;;;;;8.90;7.97;;;4.30;99.90;;;;;;5034342;28;20451;-63
2020/12/03 12:35:21;;;;;;;9.50;8.17;;;4.30;99.90;;;;;;5034642;28;20455;-63
2020/12/03 12:37:47;;;;;;;9.60;7.73;;;4.30;99.90;;;;;;5034526;28;20433;-63
2020/12/03 12:40:13;;;;;;;10.70;7.70;;;4.30;99.90;;;;;;5034424;28;20948;-63
2020/12/03 12:42:39;;;;;;;7.97;6.93;;;4.20;99.90;;;;;;5034679;28;20452;-63
2020/12/03 12:45:05;;;;;;;8.30;7.23;;;4.20;99.90;;;;;;5034594;28;20460;-63
2020/12/03 12:47:32;;;;;;;9.20;6.63;;;4.10;99.90;;;;;;5033632;28;20999;-62
2020/12/03 12:49:59;;;;;;;8.63;7.70;;;4.20;99.90;;;;;;5034241;28;20487;-63
2020/12/03 12:52:25;;;;;;;8.67;7.60;;;4.20;99.90;;;;;;5035917;28;20472;-62
2020/12/03 12:54:52;;;;;;;7.97;7.17;;;4.30;99.90;;;;;;5035072;28;20455;-63
2020/12/03 12:57:19;;;;;;;8.17;7.30;;;4.30;99.90;;;;;;5034893;28;20538;-63
2020/12/03 12:59:46;;;;;;;11.80;8.07;;;4.40;99.90;;;;;;5034582;28;20510;-63
2020/12/03 13:02:12;;;;;;;9.50;6.67;;;4.30;99.90;;;;;;5034181;28;20499;-63
2020/12/03 13:04:38;;;;;;;9.03;7.00;;;4.30;99.90;;;;;;5034510;28;20510;-63
2020/12/03 13:07:07;;;;;;;9.50;7.90;;;4.20;99.90;;;;;;5033739;28;20454;-63
2020/12/03 13:09:34;;;;;;;8.73;7.70;;;4.10;99.90;;;;;;5034072;28;20479;-63
2020/12/03 13:12:00;;;;;;;9.70;7.33;;;4.10;99.90;;;;;;5034060;28;20471;-63
2020/12/03 13:14:27;;;;;;;8.80;7.90;;;4.70;99.90;;;;;;5033542;28;20452;-63
2020/12/03 13:16:54;;;;;;;10.03;7.53;;;5.10;99.90;;;;;;5033915;28;20452;-64
2020/12/03 13:19:20;;;;;;;8.87;7.23;;;5.00;99.90;;;;;;5033564;28;20452;-63
2020/12/03 13:21:48;;;;;;;8.37;7.47;;;5.00;99.90;;;;;;5033377;28;21006;-62
2020/12/03 13:24:15;;;;;;;9.57;7.60;;;5.00;99.90;;;;;;5033596;28;20454;-63
2020/12/03 13:26:42;;;;;;;9.43;7.87;;;4.80;99.90;;;;;;5033845;28;20841;-63
2020/12/03 13:29:08;;;;;;;9.20;8.07;;;4.60;99.90;;;;;;5033679;28;20483;-63
2020/12/03 13:31:34;;;;;;;9.83;7.50;;;4.60;99.90;;;;;;5033896;28;20475;-63
2020/12/03 13:34:00;;;;;;;9.13;7.60;;;4.40;99.90;;;;;;5033531;28;21047;-62
2020/12/03 13:36:27;;;;;;;10.07;7.50;;;4.30;99.90;;;;;;5033536;28;20455;-63
2020/12/03 13:38:53;;;;;;;9.20;8.30;;;4.30;99.90;;;;;;5033486;28;20892;-63
2020/12/03 13:41:21;;;;;;;15.73;10.77;;;4.30;99.90;;;;;;5034165;28;20495;-62
2020/12/03 13:43:48;;;;;;;10.87;9.27;;;4.40;99.90;;;;;;5034531;28;20443;-63
2020/12/03 13:46:15;;;;;;;13.13;10.47;;;4.40;99.90;;;;;;5033759;28;20448;-62
2020/12/03 13:48:42;;;;;;;8.23;7.40;;;4.40;99.90;;;;;;5034001;28;20831;-63
2020/12/03 13:51:08;;;;;;;13.07;7.70;;;4.30;99.90;;;;;;5034232;28;20818;-62
2020/12/03 13:53:34;;;;;;;7.83;6.93;;;4.40;99.90;;;;;;5034462;28;20455;-63
2020/12/03 13:56:00;;;;;;;8.37;7.47;;;4.30;99.90;;;;;;5034275;28;20447;-63
2020/12/03 13:58:27;;;;;;;8.27;7.40;;;4.20;99.90;;;;;;5036535;28;20486;-63
2020/12/03 14:00:53;;;;;;;8.40;7.37;;;4.30;99.90;;;;;;5037328;28;20476;-63
2020/12/03 14:03:19;;;;;;;7.70;6.70;;;4.30;99.90;;;;;;5037624;28;20448;-63
2020/12/03 14:05:46;;;;;;;12.00;7.13;;;4.30;99.90;;;;;;5037708;28;20463;-63
2020/12/03 14:08:12;;;;;;;14.23;9.13;;;4.30;99.90;;;;;;5037698;28;20479;-62
2020/12/03 14:10:38;;;;;;;13.10;9.07;;;4.30;99.90;;;;;;5038028;28;20468;-62
2020/12/03 14:13:04;;;;;;;13.20;10.10;;;4.20;99.90;;;;;;5038146;28;20435;-63
2020/12/03 14:15:31;;;;;;;14.33;10.67;;;4.20;99.90;;;;;;5038133;28;20455;-63
2020/12/03 14:17:58;;;;;;;11.80;9.00;;;4.30;99.90;;;;;;5038184;28;20455;-62
2020/12/03 14:20:24;;;;;;;12.70;9.53;;;4.20;99.90;;;;;;5037684;28;20857;-63
2020/12/03 14:22:50;;;;;;;9.40;7.07;;;4.10;99.90;;;;;;5039961;28;20451;-62
2020/12/03 14:25:17;;;;;;;11.17;8.20;;;4.10;99.90;;;;;;5038863;28;20459;-63
2020/12/03 14:27:45;;;;;;;9.07;7.70;;;4.10;99.90;;;;;;5038097;28;20471;-63
2020/12/03 14:30:13;;;;;;;11.43;7.80;;;4.00;99.90;;;;;;5037063;28;20448;-62
2020/12/03 14:32:40;;;;;;;11.20;7.70;;;4.00;99.90;;;;;;5037636;28;20468;-62
2020/12/03 14:35:06;;;;;;;13.03;7.90;;;4.00;99.90;;;;;;5038782;28;20844;-62
2020/12/03 14:37:35;;;;;;;12.00;7.90;;;4.00;99.90;;;;;;5041091;28;20448;-63
2020/12/03 14:40:03;;;;;;;9.50;7.60;;;4.00;99.90;;;;;;5040852;28;20455;-63
2020/12/03 14:42:30;;;;;;;10.20;8.40;;;3.90;99.90;;;;;;5039841;28;20498;-63
2020/12/03 14:44:56;;;;;;;9.40;7.03;;;3.90;99.90;;;;;;5041435;28;20993;-63
2020/12/03 14:47:22;;;;;;;9.40;8.23;;;4.00;99.90;;;;;;5039301;28;20486;-64
2020/12/03 14:49:49;;;;;;;8.97;7.53;;;4.00;99.90;;;;;;5036673;28;20469;-64
2020/12/03 14:52:15;;;;;;;7.63;6.93;;;4.10;99.90;;;;;;5036407;28;20926;-64
2020/12/03 14:54:42;;;;;;;8.27;7.43;;;4.00;99.90;;;;;;5036587;28;20521;-62
2020/12/03 14:57:08;;;;;;;7.83;7.03;;;4.10;99.90;;;;;;5036814;28;20463;-63
2020/12/03 14:59:34;;;;;;;10.20;7.80;;;4.10;99.90;;;;;;5035982;28;20970;-64
2020/12/03 15:02:13;;;;;;;12.30;8.80;;;4.10;99.90;;;;;;5035651;28;20480;-63
2020/12/03 15:04:41;;;;;;;9.57;7.93;;;4.00;99.90;;;;;;5036403;28;20530;-65
2020/12/03 15:07:08;;;;;;;10.23;8.40;;;4.00;99.90;;;;;;5036083;28;20849;-63
2020/12/03 15:09:35;;;;;;;10.57;9.23;;;4.00;99.90;;;;;;5035918;28;20444;-63
2020/12/03 15:12:03;;;;;;;10.00;8.10;;;4.00;99.90;;;;;;5037635;28;20478;-62
2020/12/03 15:14:29;;;;;;;9.07;8.17;;;3.90;99.90;;;;;;5036158;28;20452;-62
2020/12/03 15:16:55;;;;;;;10.13;8.40;;;4.00;99.90;;;;;;5035733;28;20456;-62
2020/12/03 15:19:22;;;;;;;13.90;10.20;;;3.90;99.90;;;;;;5035804;28;20444;-63
2020/12/03 15:21:48;;;;;;;10.60;8.57;;;3.90;99.90;;;;;;5035556;28;20526;-62
2020/12/03 15:24:15;;;;;;;14.20;9.30;;;3.80;99.90;;;;;;5036381;28;20456;-63
2020/12/03 15:26:41;;;;;;;11.17;8.93;;;3.80;99.90;;;;;;5036429;28;20448;-62
2020/12/03 15:29:07;;;;;;;10.40;8.03;;;3.70;99.90;;;;;;5035732;28;20476;-62
2020/12/03 15:31:33;;;;;;;11.67;9.20;;;3.70;99.90;;;;;;5036029;28;20474;-62
2020/12/03 15:33:59;;;;;;;17.10;10.03;;;3.60;99.90;;;;;;5036337;28;20800;-63
2020/12/03 15:36:25;;;;;;;14.17;9.87;;;3.60;99.90;;;;;;5035490;28;20452;-64
2020/12/03 15:38:52;;;;;;;11.13;9.33;;;3.50;99.90;;;;;;5035431;28;20524;-62
2020/12/03 15:41:19;;;;;;;13.80;10.27;;;3.50;99.90;;;;;;5035524;28;21003;-64
2020/12/03 15:43:45;;;;;;;13.80;10.40;;;3.50;99.90;;;;;;5035298;28;20448;-63
2020/12/03 15:46:11;;;;;;;15.27;10.30;;;3.40;99.90;;;;;;5035590;28;20455;-64
2020/12/03 15:48:38;;;;;;;12.93;9.63;;;3.40;99.90;;;;;;5035462;28;20472;-63
2020/12/03 15:51:06;;;;;;;12.37;9.03;;;3.20;99.90;;;;;;5035480;28;20559;-63
2020/12/03 15:53:32;;;;;;;15.87;9.70;;;3.20;99.90;;;;;;5035501;28;20458;-63
2020/12/03 15:55:59;;;;;;;16.33;12.23;;;3.10;99.90;;;;;;5035668;28;20527;-62
2020/12/03 15:58:26;;;;;;;18.53;11.73;;;3.10;99.90;;;;;;5035642;28;20444;-63
2020/12/03 16:00:54;;;;;;;15.17;11.50;;;3.00;99.90;;;;;;5035161;28;20567;-62
2020/12/03 16:03:20;;;;;;;15.50;11.73;;;2.90;99.90;;;;;;5035118;28;20448;-63
2020/12/03 16:05:47;;;;;;;16.70;11.43;;;2.90;99.90;;;;;;5035205;28;20448;-63
2020/12/03 16:08:13;;;;;;;15.93;12.27;;;3.00;99.90;;;;;;5035186;28;20487;-62
2020/12/03 16:10:39;;;;;;;18.37;12.70;;;2.90;99.90;;;;;;5035192;28;20803;-63
2020/12/03 16:13:05;;;;;;;16.77;11.80;;;2.90;99.90;;;;;;5035235;28;20452;-62
2020/12/03 16:15:32;;;;;;;18.90;13.27;;;2.80;99.90;;;;;;5034900;28;20451;-63
2020/12/03 16:17:58;;;;;;;23.70;11.90;;;2.80;99.90;;;;;;5035214;28;20451;-61
2020/12/03 16:20:24;;;;;;;23.03;13.60;;;2.80;99.90;;;;;;5035373;28;20785;-62
2020/12/03 16:22:51;;;;;;;21.77;13.37;;;2.70;99.90;;;;;;5035550;28;20448;-62
2020/12/03 16:25:17;;;;;;;19.03;12.23;;;2.70;99.90;;;;;;5035279;28;20858;-64
2020/12/03 16:27:43;;;;;;;17.60;12.07;;;2.70;99.90;;;;;;5035300;28;20479;-63
2020/12/03 16:30:09;;;;;;;22.70;13.10;;;2.60;99.90;;;;;;5035170;28;20448;-63
2020/12/03 16:32:37;;;;;;;18.23;12.67;;;2.60;99.90;;;;;;5034735;28;20975;-62
2020/12/03 16:35:05;;;;;;;16.97;12.70;;;2.50;99.90;;;;;;5034877;28;20479;-62
2020/12/03 16:37:34;;;;;;;17.47;12.10;;;2.50;99.90;;;;;;5035195;28;20448;-62
2020/12/03 16:40:01;;;;;;;16.20;12.20;;;2.50;99.90;;;;;;5035475;28;20452;-63
2020/12/03 16:42:27;;;;;;;16.30;12.13;;;2.50;99.90;;;;;;5035092;28;20451;-63
2020/12/03 16:44:54;;;;;;;13.73;11.03;;;2.40;99.90;;;;;;5035295;28;20459;-63
2020/12/03 16:47:20;;;;;;;13.20;10.33;;;2.30;99.90;;;;;;5035019;28;20467;-63
2020/12/03 16:49:47;;;;;;;12.80;10.13;;;2.30;99.90;;;;;;5034271;28;20456;-63
2020/12/03 16:52:13;;;;;;;14.53;10.67;;;2.40;99.90;;;;;;5034551;28;20468;-62
2020/12/03 16:54:39;;;;;;;12.97;10.23;;;2.40;99.90;;;;;;5034399;28;20459;-63
2020/12/03 16:57:05;;;;;;;11.73;10.47;;;2.50;99.90;;;;;;5034508;28;20448;-64
2020/12/03 16:59:32;;;;;;;15.10;11.90;;;2.40;99.90;;;;;;5034686;28;20466;-63
2020/12/03 17:01:58;;;;;;;13.00;11.00;;;2.40;99.90;;;;;;5034204;28;20534;-64
2020/12/03 17:04:24;;;;;;;16.10;10.60;;;2.30;99.90;;;;;;5034599;28;20498;-64
2020/12/03 17:06:51;;;;;;;13.20;11.30;;;2.30;99.90;;;;;;5034333;28;20451;-64
2020/12/03 17:09:17;;;;;;;14.50;10.67;;;2.30;99.90;;;;;;5034739;28;20476;-63
2020/12/03 17:11:43;;;;;;;14.47;11.83;;;2.30;99.90;;;;;;5034659;28;20468;-64
2020/12/03 17:14:10;;;;;;;12.20;9.77;;;2.30;99.90;;;;;;5035172;28;20463;-63
2020/12/03 17:16:36;;;;;;;13.53;10.30;;;2.40;99.90;;;;;;5034357;28;20463;-63
2020/12/03 17:19:02;;;;;;;14.60;10.87;;;2.40;99.90;;;;;;5034353;28;20455;-63
2020/12/03 17:21:31;;;;;;;11.73;10.23;;;2.40;99.90;;;;;;5034145;28;20543;-63
2020/12/03 17:23:58;;;;;;;13.37;10.67;;;2.40;99.90;;;;;;5034312;28;20448;-62
2020/12/03 17:26:24;;;;;;;16.10;10.70;;;2.40;99.90;;;;;;5036187;28;20455;-63
2020/12/03 17:28:51;;;;;;;14.27;11.40;;;2.40;99.90;;;;;;5034893;28;20460;-62
2020/12/03 17:31:17;;;;;;;15.10;13.10;;;2.40;99.90;;;;;;5034031;28;20993;-62
2020/12/03 17:33:43;;;;;;;15.10;11.90;;;2.30;99.90;;;;;;5033958;28;20456;-62
2020/12/03 17:36:09;;;;;;;14.80;12.17;;;2.40;99.90;;;;;;5034432;28;20448;-62
2020/12/03 17:38:36;;;;;;;15.00;11.20;;;2.40;99.90;;;;;;5034384;28;20444;-63
2020/12/03 17:41:03;;;;;;;15.60;11.27;;;2.30;99.90;;;;;;5033969;28;20513;-62
2020/12/03 17:43:30;;;;;;;14.30;11.97;;;2.30;99.90;;;;;;5033562;28;20455;-64
2020/12/03 17:45:56;;;;;;;14.33;11.67;;;2.30;99.90;;;;;;5033232;28;20443;-62
2020/12/03 17:48:22;;;;;;;14.07;11.70;;;2.20;99.90;;;;;;5033745;28;20468;-63
2020/12/03 17:50:48;;;;;;;19.60;12.10;;;2.30;99.90;;;;;;5033638;28;20476;-63
2020/12/03 17:53:15;;;;;;;17.53;13.07;;;2.20;99.90;;;;;;5034054;28;20452;-63
2020/12/03 17:55:41;;;;;;;12.70;11.23;;;2.10;99.90;;;;;;5033782;28;20456;-62
2020/12/03 17:58:09;;;;;;;17.87;11.80;;;2.10;99.90;;;;;;5034164;28;20545;-62
2020/12/03 18:00:39;;;;;;;13.77;11.10;;;2.00;99.90;;;;;;5034164;28;20474;-63
2020/12/03 18:03:06;;;;;;;14.50;11.03;;;2.00;99.90;;;;;;5034392;28;20448;-62
2020/12/03 18:05:32;;;;;;;12.87;10.30;;;1.90;99.90;;;;;;5033486;28;20452;-63